Terminal Aerodrome Forecast
Issued by NWS Cleveland, OH

Home | Current Version | Previous Version | Graphics & Text | Print | Product List | Glossary On
Versions: 1 2 3 4 5 6 7 8 9 10 11 12 13 14 15 16 17 18 19 20
000
FTUS41 KCLE 062300
TAFYNG
TAF
KYNG 062330Z 0700/0724 01004KT P6SM SKC
     FM070600 00000KT 4SM BR SKC
      TEMPO 0710/0713 2SM BR
     FM071400 VRB04KT P6SM SKC=

USA.gov is the U.S. government's official web portal to all federal, state and local government web resources and services.